Time;durP1;ratioP1;P1;durP2;ratioP2;P2;SDS_P1;SDS_P2;PMS_P1;PMS_P2;Temp;Humidity;BMP_temperature;BMP_pressure;BME280_temperature;BME280_humidity;BME280_pressure;Samples;Min_cycle;Max_cycle;Signal;HPM_P1;HPM_P2
2022/05/03 00:00:09;;;;;;;11.48;9.95;;;4.70;78.20;;;;;;5058505;28;20044;-66
2022/05/03 00:03:11;;;;;;;14.25;9.55;;;4.60;78.00;;;;;;5068430;28;20037;-66
2022/05/03 00:06:11;;;;;;;11.88;9.20;;;4.60;78.20;;;;;;5068701;28;20047;-66
2022/05/03 00:08:53;;;;;;;10.43;9.10;;;4.60;77.80;;;;;;5051866;28;20072;-66
2022/05/03 00:11:32;;;;;;;11.07;9.55;;;4.50;78.10;;;;;;5067665;28;20551;-66
2022/05/03 00:14:25;;;;;;;11.07;9.80;;;4.50;78.50;;;;;;5066680;28;20049;-66
2022/05/03 00:16:53;;;;;;;10.55;9.10;;;4.40;78.60;;;;;;5065072;28;20393;-66
2022/05/03 00:19:18;;;;;;;11.63;9.20;;;4.40;78.20;;;;;;5051275;28;20037;-66
2022/05/03 00:21:45;;;;;;;15.00;10.83;;;4.30;77.60;;;;;;5067585;28;20032;-66
2022/05/03 00:24:11;;;;;;;12.50;10.55;;;4.30;77.40;;;;;;5069260;28;20036;-66
2022/05/03 00:26:37;;;;;;;13.80;10.02;;;4.30;77.30;;;;;;5055147;28;20043;-66
2022/05/03 00:29:04;;;;;;;13.77;11.13;;;4.30;77.40;;;;;;5067071;28;20401;-66
2022/05/03 00:31:30;;;;;;;16.58;12.43;;;4.30;77.20;;;;;;5065501;28;20113;-66
2022/05/03 00:33:57;;;;;;;13.90;10.82;;;4.30;77.70;;;;;;5066952;28;20071;-66
2022/05/03 00:36:23;;;;;;;13.75;11.32;;;4.30;77.10;;;;;;5053832;28;20036;-66
2022/05/03 00:38:50;;;;;;;13.45;11.25;;;4.30;77.60;;;;;;5052195;28;20762;-66
2022/05/03 00:41:40;;;;;;;12.77;10.25;;;4.20;77.30;;;;;;5063412;28;20037;-66
2022/05/03 00:47:18;;;;;;;15.52;11.98;;;4.20;76.90;;;;;;5099699;28;20082;-66
2022/05/03 00:49:44;;;;;;;15.82;11.68;;;4.20;76.80;;;;;;5066468;28;20073;-66
2022/05/03 00:52:18;;;;;;;15.67;11.70;;;4.20;76.70;;;;;;5064856;28;20755;-66
2022/05/03 00:55:23;;;;;;;12.60;10.98;;;4.20;76.70;;;;;;5066295;28;20060;-66
2022/05/03 00:58:10;;;;;;;14.38;11.77;;;4.20;77.50;;;;;;5055883;28;20052;-66
2022/05/03 01:00:48;;;;;;;13.35;11.50;;;4.30;78.00;;;;;;5065187;28;20140;-66
2022/05/03 01:03:20;;;;;;;16.85;14.18;;;4.20;78.00;;;;;;5066761;28;20055;-66
2022/05/03 01:06:04;;;;;;;17.60;15.32;;;4.20;79.10;;;;;;5066024;28;20050;-66
2022/05/03 01:08:43;;;;;;;17.75;13.52;;;4.30;80.60;;;;;;5050910;28;20048;-66
2022/05/03 01:11:14;;;;;;;17.83;14.75;;;4.30;80.70;;;;;;5068799;28;20094;-66
2022/05/03 01:13:50;;;;;;;15.48;12.90;;;4.30;81.70;;;;;;5066384;28;20033;-66
2022/05/03 01:16:40;;;;;;;15.63;12.35;;;4.30;81.10;;;;;;5065653;28;20119;-66
2022/05/03 01:19:15;;;;;;;14.10;11.75;;;4.20;80.00;;;;;;5085121;28;20098;-66
2022/05/03 01:21:49;;;;;;;17.10;14.45;;;4.20;79.80;;;;;;5050639;28;20056;-66
2022/05/03 01:24:35;;;;;;;15.20;12.35;;;4.20;79.20;;;;;;5067116;28;20449;-66
2022/05/03 01:27:10;;;;;;;14.73;11.73;;;4.20;79.20;;;;;;5068274;28;20105;-66
2022/05/03 01:29:36;;;;;;;15.25;12.00;;;4.20;79.70;;;;;;5066158;28;20044;-66
2022/05/03 01:32:08;;;;;;;13.88;11.27;;;4.20;80.80;;;;;;5050300;28;20055;-66
2022/05/03 01:34:36;;;;;;;22.27;14.82;;;4.10;79.80;;;;;;5067159;28;20067;-66
2022/05/03 01:37:24;;;;;;;13.77;11.68;;;4.20;79.70;;;;;;5068810;28;20048;-66
2022/05/03 01:40:05;;;;;;;18.65;12.18;;;4.10;79.80;;;;;;5075213;28;20052;-66
2022/05/03 01:42:34;;;;;;;12.95;10.38;;;4.10;79.80;;;;;;5064170;28;20044;-66
2022/05/03 01:45:08;;;;;;;14.93;11.07;;;4.10;79.60;;;;;;5049507;28;20072;-66
2022/05/03 01:47:53;;;;;;;14.15;10.45;;;4.10;79.20;;;;;;5057370;28;20055;-66
2022/05/03 01:50:41;;;;;;;14.60;10.80;;;4.10;79.30;;;;;;5065810;28;20043;-66
2022/05/03 01:53:39;;;;;;;15.57;10.40;;;4.00;79.30;;;;;;5066884;28;20556;-66
2022/05/03 01:56:36;;;;;;;11.55;9.73;;;4.00;79.60;;;;;;5033955;28;20130;-66
2022/05/03 01:59:25;;;;;;;14.18;11.95;;;4.00;79.70;;;;;;5061404;28;20087;-66
2022/05/03 02:02:05;;;;;;;18.27;11.38;;;4.00;79.40;;;;;;5066737;28;20045;-66
2022/05/03 02:04:50;;;;;;;16.95;12.43;;;4.00;79.20;;;;;;5065765;28;20037;-66
2022/05/03 02:07:42;;;;;;;16.05;12.82;;;4.00;79.30;;;;;;5065229;28;20542;-66
2022/05/03 02:10:16;;;;;;;18.38;13.25;;;4.00;80.00;;;;;;5065252;28;20032;-66
2022/05/03 02:12:49;;;;;;;19.02;13.93;;;4.10;80.10;;;;;;5062024;28;20040;-66
2022/05/03 02:15:27;;;;;;;14.98;12.38;;;4.20;80.00;;;;;;5071464;28;20033;-66
2022/05/03 02:17:55;;;;;;;15.25;13.07;;;4.20;79.80;;;;;;5046146;28;20040;-66
2022/05/03 02:20:44;;;;;;;17.75;12.60;;;4.40;79.70;;;;;;5052031;28;20082;-66
2022/05/03 02:23:28;;;;;;;23.98;16.88;;;4.50;80.10;;;;;;5060559;28;20041;-66
2022/05/03 02:26:16;;;;;;;23.35;15.43;;;4.70;79.80;;;;;;5051258;28;20043;-66
2022/05/03 02:28:45;;;;;;;19.42;14.80;;;4.90;80.00;;;;;;5065070;28;20040;-66
2022/05/03 02:31:18;;;;;;;23.92;16.83;;;5.00;79.60;;;;;;5061994;28;20074;-66
2022/05/03 02:33:54;;;;;;;20.85;15.77;;;5.20;80.00;;;;;;5065689;28;20048;-66
2022/05/03 02:36:24;;;;;;;19.50;15.73;;;5.30;80.20;;;;;;5065040;28;20044;-66
2022/05/03 02:38:59;;;;;;;23.38;16.83;;;5.50;79.80;;;;;;5065425;28;20579;-66
2022/05/03 02:41:27;;;;;;;22.23;15.82;;;5.60;81.20;;;;;;5033044;28;20032;-66
2022/05/03 02:43:55;;;;;;;24.88;17.25;;;5.70;81.10;;;;;;5065184;28;20040;-66
2022/05/03 02:46:21;;;;;;;24.60;17.05;;;5.90;80.80;;;;;;5043738;28;20049;-66
2022/05/03 02:49:03;;;;;;;26.67;17.83;;;6.00;80.80;;;;;;5062990;28;20151;-66
2022/05/03 02:51:39;;;;;;;25.02;16.83;;;6.10;80.80;;;;;;5059009;28;21001;-66
2022/05/03 02:54:48;;;;;;;23.02;16.75;;;6.20;81.10;;;;;;5060661;28;20057;-66
2022/05/03 02:57:35;;;;;;;24.10;17.38;;;6.30;80.90;;;;;;5056856;28;20045;-66
2022/05/03 03:03:19;;;;;;;22.88;16.25;;;6.40;81.00;;;;;;5022714;28;20150;-66
2022/05/03 03:05:49;;;;;;;24.88;17.75;;;6.50;80.50;;;;;;5064439;28;20509;-66
2022/05/03 03:08:21;;;;;;;23.48;17.30;;;6.60;81.10;;;;;;5063661;28;20095;-66
2022/05/03 03:11:03;;;;;;;25.70;17.70;;;6.70;81.00;;;;;;5065431;28;20044;-66
2022/05/03 03:13:53;;;;;;;23.23;15.95;;;6.70;80.60;;;;;;5041197;28;20044;-66
2022/05/03 03:16:41;;;;;;;23.02;15.82;;;6.80;81.20;;;;;;5055785;28;20123;-66
2022/05/03 03:19:39;;;;;;;25.05;16.83;;;6.80;80.40;;;;;;5047945;28;20496;-66
2022/05/03 03:22:11;;;;;;;22.20;16.63;;;6.90;80.00;;;;;;5039322;28;20117;-66
2022/05/03 03:24:39;;;;;;;22.73;17.10;;;6.90;79.80;;;;;;5063536;28;20440;-66
2022/05/03 03:27:06;;;;;;;25.20;17.88;;;7.00;80.20;;;;;;5065443;28;20044;-66
2022/05/03 03:29:33;;;;;;;21.02;16.13;;;7.00;79.90;;;;;;5065253;28;20552;-66
2022/05/03 03:32:01;;;;;;;23.15;17.40;;;7.10;80.10;;;;;;5065575;28;20504;-66
2022/05/03 03:34:28;;;;;;;25.05;16.88;;;7.10;80.10;;;;;;5045858;28;20361;-67
2022/05/03 03:37:01;;;;;;;23.23;16.90;;;7.10;79.90;;;;;;5047457;28;20260;-67
2022/05/03 03:39:30;;;;;;;23.25;17.77;;;7.20;79.80;;;;;;5048408;28;20143;-67
2022/05/03 03:42:03;;;;;;;24.80;17.67;;;7.20;79.60;;;;;;5048654;28;20821;-67
2022/05/03 03:44:30;;;;;;;21.95;17.05;;;7.20;79.70;;;;;;5064192;28;20048;-67
2022/05/03 03:46:57;;;;;;;25.75;19.13;;;7.30;79.70;;;;;;5058360;28;20045;-67
2022/05/03 03:49:23;;;;;;;22.25;17.58;;;7.30;79.60;;;;;;5064305;28;20044;-66
2022/05/03 03:51:50;;;;;;;25.70;18.67;;;7.30;79.50;;;;;;5061193;28;20039;-67
2022/05/03 03:54:17;;;;;;;24.50;16.40;;;7.40;79.80;;;;;;5102370;28;20056;-66
2022/05/03 03:56:44;;;;;;;22.65;17.75;;;7.40;79.70;;;;;;5054236;28;20056;-66
2022/05/03 03:59:12;;;;;;;23.27;18.27;;;7.40;79.30;;;;;;5053945;28;20504;-66
2022/05/03 04:01:39;;;;;;;27.30;18.73;;;7.50;79.20;;;;;;5046083;28;20056;-67
2022/05/03 04:04:06;;;;;;;23.27;18.80;;;7.50;79.40;;;;;;5047680;28;20178;-67
2022/05/03 04:06:31;;;;;;;27.13;18.80;;;7.60;79.40;;;;;;5063922;28;20048;-67
2022/05/03 04:08:57;;;;;;;26.30;18.63;;;7.60;79.30;;;;;;5063408;28;20052;-67
2022/05/03 04:11:23;;;;;;;26.27;19.97;;;7.70;79.40;;;;;;5068557;28;20087;-67
2022/05/03 04:13:48;;;;;;;23.17;17.93;;;7.70;79.50;;;;;;5047669;28;20174;-67
2022/05/03 04:16:14;;;;;;;23.03;17.17;;;7.70;79.30;;;;;;5047744;28;20133;-67
2022/05/03 04:18:44;;;;;;;29.50;18.67;;;7.80;79.10;;;;;;5046846;28;20041;-67
2022/05/03 04:21:18;;;;;;;27.38;19.70;;;7.80;79.10;;;;;;5045197;28;20036;-67
2022/05/03 04:23:45;;;;;;;27.92;18.45;;;7.90;79.40;;;;;;5065354;28;20036;-67
2022/05/03 04:26:12;;;;;;;25.05;18.27;;;7.90;79.20;;;;;;5052401;28;20044;-67
2022/05/03 04:28:38;;;;;;;23.50;17.60;;;7.90;79.50;;;;;;5062391;28;20175;-67
2022/05/03 04:31:04;;;;;;;26.23;17.98;;;8.00;79.30;;;;;;5046538;28;20036;-67
2022/05/03 04:33:31;;;;;;;21.40;16.48;;;8.00;79.10;;;;;;5063821;28;20037;-67
2022/05/03 04:35:57;;;;;;;22.60;18.42;;;8.10;79.10;;;;;;5059132;28;20044;-67
2022/05/03 04:38:23;;;;;;;25.50;18.80;;;8.10;79.10;;;;;;5051772;28;20101;-67
2022/05/03 04:40:48;;;;;;;25.10;18.57;;;8.10;79.20;;;;;;5067045;28;20036;-67
2022/05/03 04:43:14;;;;;;;24.43;17.47;;;8.20;78.90;;;;;;5051181;28;20068;-67
2022/05/03 04:45:40;;;;;;;27.33;18.87;;;8.20;79.00;;;;;;5065767;28;20052;-67
2022/05/03 04:48:06;;;;;;;22.57;17.60;;;8.30;79.00;;;;;;5051987;28;20512;-67
2022/05/03 04:50:32;;;;;;;23.80;17.55;;;8.30;79.00;;;;;;5064415;28;20041;-67
2022/05/03 04:52:57;;;;;;;23.73;18.00;;;8.30;78.90;;;;;;5049568;28;20059;-67
2022/05/03 04:55:23;;;;;;;25.17;18.33;;;8.40;78.80;;;;;;5069793;28;20044;-67
2022/05/03 04:57:50;;;;;;;30.63;22.30;;;8.50;78.80;;;;;;5050397;28;20036;-67
2022/05/03 05:00:16;;;;;;;32.42;23.08;;;8.50;78.80;;;;;;5051402;28;20275;-67
2022/05/03 05:02:42;;;;;;;31.40;20.85;;;8.60;79.00;;;;;;5066420;28;20048;-67
2022/05/03 05:05:08;;;;;;;29.60;20.90;;;8.60;78.80;;;;;;5065588;28;20044;-67
2022/05/03 05:07:33;;;;;;;29.55;20.58;;;8.70;78.90;;;;;;5049326;28;20048;-67
2022/05/03 05:12:43;;;;;;;23.55;18.20;;;8.70;78.50;;;;;;5049575;28;20139;-67
2022/05/03 05:15:09;;;;;;;25.87;18.77;;;8.70;78.50;;;;;;5052858;28;20136;-67
2022/05/03 05:17:35;;;;;;;24.65;18.38;;;8.80;78.90;;;;;;5046929;28;20063;-67
2022/05/03 05:20:01;;;;;;;27.67;18.70;;;8.80;78.90;;;;;;5060722;28;20040;-67
2022/05/03 05:22:27;;;;;;;28.77;20.38;;;8.80;79.00;;;;;;5064932;28;20048;-67
2022/05/03 05:24:53;;;;;;;35.03;24.40;;;8.80;79.10;;;;;;5047851;28;20037;-67
2022/05/03 05:27:18;;;;;;;33.33;23.97;;;8.80;79.00;;;;;;5078839;28;20032;-67
2022/05/03 05:29:44;;;;;;;33.27;23.97;;;8.80;79.10;;;;;;5059037;28;20048;-67
2022/05/03 05:32:10;;;;;;;36.10;24.30;;;8.80;79.20;;;;;;5061472;28;20044;-67
2022/05/03 05:34:36;;;;;;;34.30;24.13;;;8.80;79.10;;;;;;5049721;28;20045;-67
2022/05/03 05:37:02;;;;;;;33.50;24.77;;;8.80;78.90;;;;;;5066737;28;20044;-67
2022/05/03 05:39:27;;;;;;;38.78;25.55;;;8.80;78.70;;;;;;5061709;28;20044;-67
2022/05/03 05:41:55;;;;;;;35.83;23.70;;;8.90;78.50;;;;;;5066337;28;20044;-67
2022/05/03 05:44:21;;;;;;;39.88;27.08;;;8.90;78.50;;;;;;5067016;28;20044;-67
2022/05/03 05:46:46;;;;;;;37.10;24.03;;;8.90;78.90;;;;;;5031898;28;20036;-67
2022/05/03 05:49:12;;;;;;;38.77;27.13;;;9.00;79.00;;;;;;5066908;28;20040;-67
2022/05/03 05:51:38;;;;;;;37.47;25.67;;;9.00;79.10;;;;;;5044537;28;20043;-67
2022/05/03 05:54:04;;;;;;;45.37;28.97;;;9.00;79.10;;;;;;5063214;28;20641;-67
2022/05/03 05:56:30;;;;;;;39.53;26.73;;;9.10;79.20;;;;;;5049496;28;20037;-67
2022/05/03 05:58:56;;;;;;;41.53;26.67;;;9.10;79.20;;;;;;5067301;28;20417;-67
2022/05/03 06:01:26;;;;;;;44.72;27.83;;;9.20;79.40;;;;;;5049548;28;20115;-67
2022/05/03 06:03:52;;;;;;;44.22;29.23;;;9.20;79.50;;;;;;5055059;28;20467;-68
2022/05/03 06:06:18;;;;;;;44.22;28.58;;;9.20;79.20;;;;;;5066158;28;20052;-68
2022/05/03 06:08:44;;;;;;;49.33;28.80;;;9.30;79.80;;;;;;5066723;28;20108;-68
2022/05/03 06:11:09;;;;;;;42.40;25.63;;;9.30;79.50;;;;;;5032167;28;20127;-68
2022/05/03 06:13:35;;;;;;;41.70;25.63;;;9.40;79.70;;;;;;5065297;28;20044;-68
2022/05/03 06:16:11;;;;;;;43.13;25.40;;;9.50;79.70;;;;;;5048700;28;20090;-68
2022/05/03 06:18:37;;;;;;;36.78;22.00;;;9.50;79.80;;;;;;5065480;28;20049;-68
2022/05/03 06:21:05;;;;;;;37.60;23.15;;;9.60;79.40;;;;;;5031565;28;20036;-68
2022/05/03 06:23:31;;;;;;;33.30;21.35;;;9.60;79.40;;;;;;5062785;28;20040;-68
2022/05/03 06:25:58;;;;;;;31.48;18.73;;;9.70;79.50;;;;;;5072667;28;20102;-68
2022/05/03 06:28:24;;;;;;;28.63;17.90;;;9.70;79.50;;;;;;5033101;28;20135;-68
2022/05/03 06:30:50;;;;;;;24.07;15.30;;;9.70;79.30;;;;;;5073985;28;20140;-68
2022/05/03 06:33:15;;;;;;;25.87;14.60;;;9.80;79.50;;;;;;5059561;28;20132;-68
2022/05/03 06:35:41;;;;;;;17.67;8.73;;;9.80;79.60;;;;;;5047150;28;20035;-68
2022/05/03 06:38:07;;;;;;;22.27;8.80;;;9.70;79.30;;;;;;5098086;28;20041;-68
2022/05/03 06:40:33;;;;;;;20.13;6.80;;;9.70;79.30;;;;;;5064412;28;20064;-68
2022/05/03 06:42:58;;;;;;;14.60;5.63;;;9.70;79.90;;;;;;5065487;28;20114;-68
2022/05/03 06:45:24;;;;;;;14.10;5.73;;;9.60;79.70;;;;;;5063634;28;20462;-68
2022/05/03 06:47:50;;;;;;;11.90;4.70;;;9.60;79.70;;;;;;5078115;28;20051;-68
2022/05/03 06:50:16;;;;;;;12.60;5.00;;;9.50;80.10;;;;;;5047710;28;20048;-68
2022/05/03 06:52:43;;;;;;;10.73;4.70;;;9.50;79.80;;;;;;5060120;28;20689;-68
2022/05/03 06:55:10;;;;;;;13.88;5.82;;;9.40;80.10;;;;;;5062782;28;20101;-68
2022/05/03 06:57:36;;;;;;;11.05;4.88;;;9.40;80.10;;;;;;5062666;28;20045;-68
2022/05/03 07:00:05;;;;;;;11.43;4.50;;;9.40;80.50;;;;;;5047226;28;20102;-68
2022/05/03 07:02:31;;;;;;;13.13;4.75;;;9.40;80.70;;;;;;5064910;28;20039;-68
2022/05/03 07:05:02;;;;;;;19.90;5.13;;;9.50;80.60;;;;;;5047641;28;20120;-68
2022/05/03 07:07:28;;;;;;;14.48;5.40;;;9.50;80.60;;;;;;5066773;28;20048;-68
2022/05/03 07:09:55;;;;;;;17.67;5.37;;;9.60;80.80;;;;;;5064253;28;20060;-68
2022/05/03 07:12:21;;;;;;;15.88;5.45;;;9.50;80.50;;;;;;5063918;28;20063;-68
2022/05/03 07:14:47;;;;;;;18.03;5.50;;;9.50;80.70;;;;;;5048113;28;20037;-68
2022/05/03 07:22:45;;;;;;;17.80;5.20;;;9.60;80.60;;;;;;5046619;28;20101;-68
2022/05/03 07:22:45;;;;;;;19.98;6.38;;;9.70;80.10;;;;;;5064083;28;20101;-68
2022/05/03 07:25:11;;;;;;;18.67;5.15;;;9.80;80.20;;;;;;5034387;28;20115;-68
2022/05/03 07:27:36;;;;;;;24.77;6.50;;;9.80;79.90;;;;;;5042451;28;20823;-68
2022/05/03 07:30:03;;;;;;;18.47;5.70;;;10.00;79.50;;;;;;5050601;28;20586;-68
2022/05/03 07:32:28;;;;;;;18.52;5.28;;;10.00;79.20;;;;;;5039972;28;20045;-68
2022/05/03 07:34:54;;;;;;;19.80;5.50;;;10.10;78.80;;;;;;5060744;28;20117;-68
2022/05/03 07:37:20;;;;;;;18.93;5.70;;;10.10;78.70;;;;;;5065572;28;20045;-68
2022/05/03 07:39:45;;;;;;;17.40;5.33;;;10.10;78.20;;;;;;5048412;28;20131;-68
2022/05/03 07:42:11;;;;;;;15.20;4.83;;;10.20;77.90;;;;;;5058516;28;20029;-68
2022/05/03 07:44:37;;;;;;;16.37;5.13;;;10.20;77.70;;;;;;5043642;28;20523;-68
2022/05/03 07:47:03;;;;;;;20.03;5.20;;;10.30;77.20;;;;;;5059315;28;20094;-68
2022/05/03 07:49:29;;;;;;;21.43;5.10;;;10.30;76.70;;;;;;5044999;28;20816;-68
2022/05/03 07:51:54;;;;;;;14.27;4.13;;;10.30;76.30;;;;;;5055770;28;20413;-68
2022/05/03 07:54:20;;;;;;;12.17;4.13;;;10.30;76.10;;;;;;5058717;28;20044;-68
2022/05/03 07:56:46;;;;;;;13.50;4.47;;;10.30;75.50;;;;;;5041903;28;20122;-68
2022/05/03 07:59:12;;;;;;;18.05;4.10;;;10.40;75.50;;;;;;5092970;28;20041;-68
2022/05/03 08:01:40;;;;;;;17.38;3.50;;;10.50;75.30;;;;;;5053067;28;20041;-68
2022/05/03 08:04:06;;;;;;;13.45;3.88;;;10.60;74.50;;;;;;5043097;28;20695;-68
2022/05/03 08:06:32;;;;;;;15.60;4.65;;;10.70;74.40;;;;;;5057143;28;20101;-68
2022/05/03 08:08:58;;;;;;;18.87;4.23;;;10.80;73.90;;;;;;5042602;28;20079;-68
2022/05/03 08:11:24;;;;;;;13.73;3.63;;;10.90;73.10;;;;;;5051553;28;20306;-68
2022/05/03 08:13:53;;;;;;;18.60;4.23;;;11.10;73.30;;;;;;5065076;28;20044;-68
2022/05/03 08:16:20;;;;;;;14.32;3.75;;;11.30;72.80;;;;;;5065126;28;20439;-68
2022/05/03 08:18:46;;;;;;;10.90;3.05;;;11.40;72.40;;;;;;5065394;28;20033;-68
2022/05/03 08:21:12;;;;;;;18.25;4.03;;;11.50;71.30;;;;;;5067370;28;20199;-68
2022/05/03 08:23:38;;;;;;;15.17;3.83;;;11.60;71.30;;;;;;5065935;28;20847;-68
2022/05/03 08:26:05;;;;;;;12.23;3.95;;;11.60;70.90;;;;;;5052416;28;20532;-68
2022/05/03 08:28:31;;;;;;;13.18;3.53;;;11.70;70.40;;;;;;5060742;28;20044;-68
2022/05/03 08:30:57;;;;;;;14.07;3.70;;;11.70;69.70;;;;;;5041092;28;20348;-68
2022/05/03 08:33:23;;;;;;;14.55;3.65;;;11.80;68.80;;;;;;5043868;28;20532;-68
2022/05/03 08:35:49;;;;;;;15.38;3.45;;;11.80;68.50;;;;;;5043353;28;20041;-68
2022/05/03 08:43:45;;;;;;;10.32;3.22;;;12.00;67.90;;;;;;5064843;28;20063;-68
2022/05/03 08:46:12;;;;;;;12.80;2.93;;;12.00;67.40;;;;;;5065794;28;20052;-68
2022/05/03 08:48:42;;;;;;;12.77;3.80;;;11.90;67.40;;;;;;5064736;28;20290;-68
2022/05/03 08:51:14;;;;;;;12.07;3.17;;;11.90;67.40;;;;;;5044747;28;20078;-68
2022/05/03 08:53:40;;;;;;;16.77;3.70;;;11.90;67.40;;;;;;5102200;27;20060;-68
2022/05/03 08:56:06;;;;;;;16.15;4.18;;;12.00;67.40;;;;;;5081508;28;20049;-68
2022/05/03 08:58:33;;;;;;;14.73;3.70;;;12.00;66.50;;;;;;5045105;28;20059;-68
2022/05/03 09:00:59;;;;;;;13.25;3.30;;;11.90;66.40;;;;;;5078643;28;20481;-68
2022/05/03 09:03:24;;;;;;;16.93;3.17;;;11.90;66.50;;;;;;5064269;28;20076;-68
2022/05/03 09:05:52;;;;;;;16.00;3.77;;;11.90;65.50;;;;;;5063973;28;20052;-68
2022/05/03 09:08:23;;;;;;;18.48;3.85;;;11.90;66.00;;;;;;5048736;28;20457;-68
2022/05/03 09:10:49;;;;;;;14.20;3.60;;;11.90;65.90;;;;;;5064561;28;20660;-68
2022/05/03 09:13:22;;;;;;;15.00;2.92;;;11.90;65.10;;;;;;5064019;28;20052;-68
2022/05/03 09:15:55;;;;;;;11.32;2.85;;;12.00;64.80;;;;;;5063727;28;20036;-68
2022/05/03 09:18:29;;;;;;;11.98;2.78;;;12.00;64.20;;;;;;5093602;28;20491;-68
2022/05/03 09:23:47;;;;;;;;;;;12.10;64.40;;;;;;5066595;28;20041;-68
2022/05/03 09:26:24;;;;;;;10.55;2.78;;;12.20;63.50;;;;;;5068968;28;19976;-68
2022/05/03 09:28:49;;;;;;;12.32;2.63;;;12.20;63.90;;;;;;5065909;28;20051;-68
2022/05/03 09:31:30;;;;;;;13.17;2.70;;;12.30;62.80;;;;;;5051302;28;20040;-68
2022/05/03 09:33:57;;;;;;;16.08;3.42;;;12.40;61.90;;;;;;5093809;28;20474;-68
2022/05/03 09:36:23;;;;;;;11.63;2.90;;;12.40;62.20;;;;;;5062647;28;20515;-68
2022/05/03 09:38:53;;;;;;;11.50;2.67;;;12.40;61.80;;;;;;5034748;28;20282;-68
2022/05/03 09:41:19;;;;;;;11.60;3.23;;;12.50;61.70;;;;;;5073995;23;20872;-66
2022/05/03 09:44:08;;;;;;;10.60;2.17;;;12.60;61.60;;;;;;5026875;28;20304;-66
2022/05/03 09:46:54;;;;;;;10.75;2.78;;;12.70;61.00;;;;;;5056935;28;20037;-66
2022/05/03 09:49:34;;;;;;;11.80;2.50;;;12.70;60.40;;;;;;5026061;28;20239;-66
2022/05/03 09:52:00;;;;;;;10.93;2.83;;;12.70;60.50;;;;;;5010489;28;20633;-66
2022/05/03 09:54:25;;;;;;;10.23;2.50;;;12.70;59.80;;;;;;5027079;28;20520;-66
2022/05/03 09:56:54;;;;;;;9.90;2.77;;;12.80;59.60;;;;;;5031758;28;20045;-66
2022/05/03 09:59:20;;;;;;;8.03;2.00;;;12.80;60.30;;;;;;5009617;28;20084;-66
2022/05/03 10:01:47;;;;;;;11.10;2.73;;;12.90;59.50;;;;;;5028878;28;20276;-66
2022/05/03 10:04:14;;;;;;;12.90;2.60;;;12.90;59.20;;;;;;5010211;28;20854;-66
2022/05/03 10:06:40;;;;;;;15.83;2.87;;;12.90;58.30;;;;;;5042715;28;20342;-66
2022/05/03 10:09:07;;;;;;;8.87;2.67;;;12.90;58.20;;;;;;5057913;28;20370;-66
2022/05/03 10:11:36;;;;;;;12.17;2.93;;;12.90;58.10;;;;;;5027570;28;20310;-66
2022/05/03 10:14:02;;;;;;;11.10;2.70;;;12.90;58.70;;;;;;5015130;28;20387;-66
2022/05/03 10:22:04;;;;;;;11.37;2.40;;;13.00;58.20;;;;;;5024111;28;20331;-66
2022/05/03 10:24:31;;;;;;;10.77;3.10;;;13.10;57.20;;;;;;5001246;28;20280;-66
2022/05/03 10:27:07;;;;;;;10.73;2.30;;;13.10;56.90;;;;;;5028063;28;20322;-66
2022/05/03 10:29:37;;;;;;;10.40;2.77;;;13.20;56.10;;;;;;5059601;28;20924;-65
2022/05/03 10:32:06;;;;;;;10.63;2.10;;;13.30;56.30;;;;;;5054486;28;20304;-66
2022/05/03 10:34:59;;;;;;;9.70;2.53;;;13.50;56.20;;;;;;5057739;28;20331;-66
2022/05/03 10:37:35;;;;;;;10.63;2.43;;;13.70;56.10;;;;;;5022997;28;20656;-66
2022/05/03 10:40:11;;;;;;;;;;;13.90;55.90;;;;;;5058653;28;20306;-66
2022/05/03 10:42:38;;;;;;;7.77;2.03;;;14.00;54.90;;;;;;5039070;28;19925;-66
2022/05/03 10:45:11;;;;;;;8.97;2.13;;;14.20;54.60;;;;;;5033905;28;20313;-66
2022/05/03 10:47:54;;;;;;;9.67;2.20;;;14.20;53.50;;;;;;5038018;28;20342;-66
2022/05/03 10:50:20;;;;;;;9.50;2.17;;;14.30;53.70;;;;;;5031304;28;20303;-66
2022/05/03 10:53:05;;;;;;;8.60;2.00;;;14.40;53.40;;;;;;5029350;28;20361;-66
2022/05/03 10:55:33;;;;;;;;;;;14.60;52.60;;;;;;5061786;28;20689;-66
2022/05/03 10:58:25;;;;;;;10.07;2.03;;;14.60;52.50;;;;;;5057620;28;19972;-66
2022/05/03 11:01:07;;;;;;;7.23;2.00;;;14.80;51.70;;;;;;5063783;28;20868;-66
2022/05/03 11:03:34;;;;;;;6.17;1.90;;;15.00;52.00;;;;;;5026102;28;20308;-66
2022/05/03 11:06:18;;;;;;;7.97;1.93;;;15.30;52.20;;;;;;5037702;28;20637;-67
2022/05/03 11:11:52;;;;;;;10.43;1.73;;;15.70;50.50;;;;;;5034047;28;20407;-66
2022/05/03 11:14:18;;;;;;;4.40;1.80;;;15.60;49.90;;;;;;5016881;28;20310;-66
2022/05/03 11:16:47;;;;;;;6.70;1.67;;;15.60;49.50;;;;;;5028582;28;20320;-66
2022/05/03 11:19:15;;;;;;;5.60;1.77;;;15.60;49.40;;;;;;5037344;28;21109;-66
2022/05/03 11:21:41;;;;;;;6.97;1.77;;;15.60;49.60;;;;;;5066857;28;20326;-66
2022/05/03 11:24:30;;;;;;;5.70;1.97;;;15.70;49.30;;;;;;5059266;28;20337;-66
2022/05/03 11:27:09;;;;;;;5.70;1.53;;;15.70;48.50;;;;;;5027086;28;20307;-67
2022/05/03 11:29:37;;;;;;;6.47;1.60;;;15.70;48.20;;;;;;5027080;28;20280;-67
2022/05/03 11:32:06;;;;;;;5.07;1.70;;;15.80;48.80;;;;;;5040267;28;20300;-67
2022/05/03 11:34:33;;;;;;;6.70;1.57;;;15.90;47.80;;;;;;5038970;28;20311;-67
2022/05/03 11:37:00;;;;;;;7.50;2.00;;;15.80;47.60;;;;;;5040590;28;20397;-67
2022/05/03 11:39:25;;;;;;;4.83;1.30;;;15.70;48.50;;;;;;5025374;28;20334;-67
2022/05/03 11:41:51;;;;;;;11.20;1.67;;;15.40;48.00;;;;;;5040871;28;20916;-67
2022/05/03 11:44:18;;;;;;;7.60;1.53;;;15.40;47.90;;;;;;5069936;28;20059;-67
2022/05/03 11:46:45;;;;;;;6.97;1.40;;;15.40;48.40;;;;;;5049604;28;20395;-67
2022/05/03 11:49:13;;;;;;;5.67;1.73;;;15.40;48.60;;;;;;5072012;28;20280;-67
2022/05/03 11:57:24;;;;;;;5.30;1.50;;;15.40;48.80;;;;;;5041010;28;20310;-66
2022/05/03 11:59:51;;;;;;;6.20;1.30;;;15.40;48.50;;;;;;5048824;28;20722;-66
2022/05/03 12:02:32;;;;;;;6.80;1.40;;;15.40;47.30;;;;;;5040823;28;20304;-66
2022/05/03 12:05:07;;;;;;;6.73;1.40;;;15.60;48.10;;;;;;5039423;28;20306;-66
2022/05/03 12:07:45;;;;;;;4.87;1.67;;;15.70;48.50;;;;;;5056602;28;20276;-66
2022/05/03 12:10:27;;;;;;;5.40;1.23;;;15.80;47.30;;;;;;5043103;28;20283;-66
2022/05/03 12:13:07;;;;;;;9.43;1.67;;;15.90;47.20;;;;;;5044614;28;20307;-66
2022/05/03 12:15:36;;;;;;;5.20;1.70;;;15.80;47.20;;;;;;5034047;28;20320;-66
2022/05/03 12:18:28;;;;;;;6.20;1.20;;;15.70;47.50;;;;;;5039385;28;20349;-66
2022/05/03 12:20:58;;;;;;;5.50;1.20;;;15.80;47.50;;;;;;5059958;28;20663;-66
2022/05/03 12:23:36;;;;;;;5.70;1.30;;;15.80;47.20;;;;;;5036229;28;20319;-66
2022/05/03 12:26:19;;;;;;;5.13;1.20;;;15.70;47.10;;;;;;5045827;28;20308;-66
2022/05/03 12:28:54;;;;;;;5.63;1.60;;;15.60;46.60;;;;;;5032011;28;20284;-66
2022/05/03 12:31:22;;;;;;;5.23;1.33;;;15.50;47.00;;;;;;5038036;28;20300;-66
2022/05/03 12:33:52;;;;;;;5.50;1.87;;;15.50;47.50;;;;;;5048115;28;20299;-66
2022/05/03 12:36:35;;;;;;;6.40;1.30;;;15.70;47.60;;;;;;5042277;28;20329;-66
2022/05/03 12:39:20;;;;;;;5.83;1.27;;;15.70;46.60;;;;;;5037209;28;20408;-67
2022/05/03 12:41:54;;;;;;;7.05;1.60;;;15.80;46.30;;;;;;5039656;28;20353;-66
2022/05/03 12:44:21;;;;;;;6.77;1.43;;;15.70;45.70;;;;;;5021651;28;20497;-66
2022/05/03 12:46:49;;;;;;;6.13;1.20;;;15.70;46.50;;;;;;5039684;28;20299;-66
2022/05/03 12:49:15;;;;;;;9.17;1.90;;;15.70;46.90;;;;;;5072837;28;20407;-66
2022/05/03 12:51:44;;;;;;;4.73;1.43;;;15.70;46.40;;;;;;5013040;28;20330;-66
2022/05/03 12:54:10;;;;;;;8.50;1.50;;;15.70;47.30;;;;;;5067026;28;20667;-66
2022/05/03 12:59:22;;;;;;;7.03;1.60;;;15.80;46.90;;;;;;5050810;28;20378;-66
2022/05/03 13:01:54;;;;;;;7.60;1.40;;;15.70;46.50;;;;;;5069698;28;20362;-66
2022/05/03 13:04:20;;;;;;;9.07;1.70;;;15.70;46.90;;;;;;5027753;28;20523;-66
2022/05/03 13:06:47;;;;;;;6.13;1.80;;;15.60;46.90;;;;;;5033261;28;20300;-66
2022/05/03 13:09:13;;;;;;;5.53;1.83;;;15.70;47.00;;;;;;5032233;28;20378;-66
2022/05/03 13:11:40;;;;;;;5.40;1.20;;;15.70;46.40;;;;;;5034298;28;20300;-66
2022/05/03 13:14:09;;;;;;;9.47;1.70;;;15.70;46.30;;;;;;5041270;28;20354;-66
2022/05/03 13:16:35;;;;;;;5.47;1.20;;;15.80;46.70;;;;;;5072349;28;20388;-66
2022/05/03 13:19:01;;;;;;;4.07;1.60;;;15.90;46.70;;;;;;5034334;28;20283;-66
2022/05/03 13:21:27;;;;;;;6.60;1.60;;;16.10;46.40;;;;;;5043508;28;20307;-66
2022/05/03 13:23:53;;;;;;;6.30;1.80;;;16.00;46.10;;;;;;5038092;28;20346;-66
2022/05/03 13:26:19;;;;;;;7.17;1.47;;;16.10;46.00;;;;;;5038954;28;20048;-66
2022/05/03 13:28:45;;;;;;;5.13;1.57;;;16.10;45.50;;;;;;5064427;28;20362;-66
2022/05/03 13:31:13;;;;;;;5.10;1.23;;;16.00;45.70;;;;;;5070185;28;20040;-66
2022/05/03 13:33:39;;;;;;;6.23;1.70;;;15.90;45.30;;;;;;5035456;28;20107;-66
2022/05/03 13:41:34;;;;;;;7.90;1.37;;;16.00;45.50;;;;;;5041299;28;20061;-66